sensor_id;sensor_type;location;lat;lon;timestamp;pressure;altitude;pressure_sealevel;temperature;humidity
52625;BME280;38519;52.540;13.410;2023-06-22T00:02:15;98171.22;;;12.58;97.17
52625;BME280;38519;52.540;13.410;2023-06-22T00:04:40;98170.78;;;12.39;100.00
52625;BME280;38519;52.540;13.410;2023-06-22T00:07:05;98168.41;;;12.49;98.42
52625;BME280;38519;52.540;13.410;2023-06-22T00:09:31;98173.69;;;12.50;98.03
52625;BME280;38519;52.540;13.410;2023-06-22T00:11:56;98170.00;;;12.44;98.43
52625;BME280;38519;52.540;13.410;2023-06-22T00:14:22;98171.63;;;12.38;98.87
52625;BME280;38519;52.540;13.410;2023-06-22T00:16:47;98171.44;;;12.31;99.57
52625;BME280;38519;52.540;13.410;2023-06-22T00:19:13;98170.47;;;12.27;100.00
52625;BME280;38519;52.540;13.410;2023-06-22T00:21:39;98173.88;;;12.23;100.00
52625;BME280;38519;52.540;13.410;2023-06-22T00:24:04;98179.03;;;12.20;100.00
52625;BME280;38519;52.540;13.410;2023-06-22T00:26:31;98185.84;;;12.15;100.00
52625;BME280;38519;52.540;13.410;2023-06-22T00:28:57;98185.78;;;12.12;100.00
52625;BME280;38519;52.540;13.410;2023-06-22T00:31:22;98186.69;;;12.12;100.00
52625;BME280;38519;52.540;13.410;2023-06-22T00:33:48;98190.88;;;12.06;100.00
52625;BME280;38519;52.540;13.410;2023-06-22T00:36:15;98176.72;;;11.99;100.00
52625;BME280;38519;52.540;13.410;2023-06-22T00:38:41;98176.72;;;11.97;100.00
52625;BME280;38519;52.540;13.410;2023-06-22T00:41:06;98180.13;;;11.95;100.00
52625;BME280;38519;52.540;13.410;2023-06-22T00:43:31;98188.53;;;11.86;100.00
52625;BME280;38519;52.540;13.410;2023-06-22T00:45:58;98182.53;;;11.89;100.00
52625;BME280;38519;52.540;13.410;2023-06-22T00:48:23;98182.53;;;11.89;100.00
52625;BME280;38519;52.540;13.410;2023-06-22T00:50:49;98185.94;;;11.86;100.00
52625;BME280;38519;52.540;13.410;2023-06-22T00:53:16;98188.53;;;11.84;100.00
52625;BME280;38519;52.540;13.410;2023-06-22T00:55:44;98181.41;;;11.79;100.00
52625;BME280;38519;52.540;13.410;2023-06-22T00:58:10;98181.41;;;11.79;100.00
52625;BME280;38519;52.540;13.410;2023-06-22T01:00:36;98174.34;;;11.76;100.00
52625;BME280;38519;52.540;13.410;2023-06-22T01:03:02;98183.97;;;11.77;100.00
52625;BME280;38519;52.540;13.410;2023-06-22T01:05:27;98180.38;;;11.74;100.00
52625;BME280;38519;52.540;13.410;2023-06-22T01:13:01;98183.53;;;11.62;100.00
52625;BME280;38519;52.540;13.410;2023-06-22T01:15:37;98190.50;;;11.61;100.00
52625;BME280;38519;52.540;13.410;2023-06-22T01:18:04;98187.75;;;11.57;100.00
52625;BME280;38519;52.540;13.410;2023-06-22T01:20:30;98190.22;;;11.52;100.00
52625;BME280;38519;52.540;13.410;2023-06-22T01:23:20;98188.47;;;11.51;100.00
52625;BME280;38519;52.540;13.410;2023-06-22T01:28:43;98182.47;;;11.25;100.00
52625;BME280;38519;52.540;13.410;2023-06-22T01:31:13;98184.25;;;11.26;100.00
52625;BME280;38519;52.540;13.410;2023-06-22T01:33:41;98193.16;;;11.33;100.00
52625;BME280;38519;52.540;13.410;2023-06-22T01:36:06;98187.09;;;11.34;100.00
52625;BME280;38519;52.540;13.410;2023-06-22T01:38:32;98188.06;;;11.37;100.00
52625;BME280;38519;52.540;13.410;2023-06-22T01:40:58;98192.50;;;11.40;100.00
52625;BME280;38519;52.540;13.410;2023-06-22T01:43:27;98194.13;;;11.36;100.00
52625;BME280;38519;52.540;13.410;2023-06-22T01:45:53;98198.97;;;11.22;100.00
52625;BME280;38519;52.540;13.410;2023-06-22T01:48:19;98201.28;;;11.13;100.00
52625;BME280;38519;52.540;13.410;2023-06-22T01:50:44;98195.78;;;11.04;100.00
52625;BME280;38519;52.540;13.410;2023-06-22T01:53:10;98199.16;;;11.00;100.00
52625;BME280;38519;52.540;13.410;2023-06-22T01:55:35;98198.91;;;10.92;100.00
52625;BME280;38519;52.540;13.410;2023-06-22T01:58:01;98201.47;;;10.90;100.00
52625;BME280;38519;52.540;13.410;2023-06-22T02:00:27;98190.13;;;10.88;100.00
52625;BME280;38519;52.540;13.410;2023-06-22T02:02:57;98197.00;;;10.86;100.00
52625;BME280;38519;52.540;13.410;2023-06-22T02:05:24;98190.22;;;10.91;100.00
52625;BME280;38519;52.540;13.410;2023-06-22T02:08:13;98195.44;;;10.93;100.00
52625;BME280;38519;52.540;13.410;2023-06-22T02:10:37;98186.06;;;10.98;100.00
52625;BME280;38519;52.540;13.410;2023-06-22T02:13:06;98192.00;;;10.94;100.00
52625;BME280;38519;52.540;13.410;2023-06-22T02:15:33;98189.34;;;10.92;100.00
52625;BME280;38519;52.540;13.410;2023-06-22T02:17:59;98198.31;;;11.01;100.00
52625;BME280;38519;52.540;13.410;2023-06-22T02:20:24;98196.66;;;11.03;100.00
52625;BME280;38519;52.540;13.410;2023-06-22T02:22:50;98198.34;;;11.02;100.00
52625;BME280;38519;52.540;13.410;2023-06-22T02:25:15;98197.53;;;11.03;100.00
52625;BME280;38519;52.540;13.410;2023-06-22T02:27:41;98200.13;;;11.03;100.00
52625;BME280;38519;52.540;13.410;2023-06-22T02:30:09;98199.13;;;10.98;100.00
52625;BME280;38519;52.540;13.410;2023-06-22T02:32:35;98205.16;;;10.97;100.00
52625;BME280;38519;52.540;13.410;2023-06-22T02:35:00;98208.66;;;10.98;100.00
52625;BME280;38519;52.540;13.410;2023-06-22T02:37:29;98205.16;;;10.97;100.00
52625;BME280;38519;52.540;13.410;2023-06-22T02:39:54;98206.00;;;10.96;100.00
52625;BME280;38519;52.540;13.410;2023-06-22T02:42:20;98206.94;;;10.98;100.00
52625;BME280;38519;52.540;13.410;2023-06-22T02:44:46;98207.16;;;11.06;100.00
52625;BME280;38519;52.540;13.410;2023-06-22T02:47:12;98205.44;;;11.06;100.00
52625;BME280;38519;52.540;13.410;2023-06-22T02:49:38;98203.13;;;11.16;100.00
52625;BME280;38519;52.540;13.410;2023-06-22T02:52:03;98209.50;;;11.25;100.00
52625;BME280;38519;52.540;13.410;2023-06-22T02:54:29;98203.22;;;11.19;100.00
52625;BME280;38519;52.540;13.410;2023-06-22T02:56:54;98213.97;;;11.29;100.00
52625;BME280;38519;52.540;13.410;2023-06-22T02:59:19;98203.94;;;11.15;100.00
52625;BME280;38519;52.540;13.410;2023-06-22T03:01:48;98198.00;;;11.19;100.00
52625;BME280;38519;52.540;13.410;2023-06-22T03:04:15;98197.13;;;11.20;100.00
52625;BME280;38519;52.540;13.410;2023-06-22T03:06:40;98207.16;;;11.35;100.00
52625;BME280;38519;52.540;13.410;2023-06-22T03:09:07;98195.03;;;11.37;100.00
52625;BME280;38519;52.540;13.410;2023-06-22T03:11:33;98199.50;;;11.41;100.00
52625;BME280;38519;52.540;13.410;2023-06-22T03:13:58;98200.34;;;11.40;100.00
52625;BME280;38519;52.540;13.410;2023-06-22T03:16:24;98201.28;;;11.42;100.00
52625;BME280;38519;52.540;13.410;2023-06-22T03:18:49;98197.88;;;11.44;100.00
52625;BME280;38519;52.540;13.410;2023-06-22T03:21:14;98200.31;;;11.38;100.00
52625;BME280;38519;52.540;13.410;2023-06-22T03:23:41;98191.66;;;11.41;100.00
52625;BME280;38519;52.540;13.410;2023-06-22T03:26:08;98202.06;;;11.39;100.00
52625;BME280;38519;52.540;13.410;2023-06-22T03:28:33;98200.16;;;11.34;100.00
52625;BME280;38519;52.540;13.410;2023-06-22T03:30:58;98192.16;;;11.27;100.00
52625;BME280;38519;52.540;13.410;2023-06-22T03:33:24;98195.78;;;11.33;100.00
52625;BME280;38519;52.540;13.410;2023-06-22T03:35:49;98194.03;;;11.32;100.00
52625;BME280;38519;52.540;13.410;2023-06-22T03:38:15;98203.50;;;11.29;100.00
52625;BME280;38519;52.540;13.410;2023-06-22T03:40:40;98202.91;;;11.38;100.00
52625;BME280;38519;52.540;13.410;2023-06-22T03:43:06;98201.09;;;11.36;100.00
52625;BME280;38519;52.540;13.410;2023-06-22T03:45:31;98195.81;;;11.34;100.00
52625;BME280;38519;52.540;13.410;2023-06-22T03:47:56;98187.09;;;11.34;100.00
52625;BME280;38519;52.540;13.410;2023-06-22T03:50:21;98193.06;;;11.29;100.00
52625;BME280;38519;52.540;13.410;2023-06-22T03:52:47;98183.00;;;11.13;100.00
52625;BME280;38519;52.540;13.410;2023-06-22T03:55:12;98185.44;;;11.07;100.00
52625;BME280;38519;52.540;13.410;2023-06-22T03:57:38;98183.50;;;11.00;100.00
52625;BME280;38519;52.540;13.410;2023-06-22T04:00:03;98184.50;;;11.05;100.00
52625;BME280;38519;52.540;13.410;2023-06-22T04:02:31;98182.63;;;11.01;100.00
52625;BME280;38519;52.540;13.410;2023-06-22T04:04:57;98182.34;;;10.90;100.00
52625;BME280;38519;52.540;13.410;2023-06-22T04:07:23;98186.75;;;10.92;100.00
52625;BME280;38519;52.540;13.410;2023-06-22T04:09:49;98188.44;;;10.90;100.00
52625;BME280;38519;52.540;13.410;2023-06-22T04:12:14;98197.22;;;10.94;100.00
52625;BME280;38519;52.540;13.410;2023-06-22T04:14:40;98186.97;;;11.00;100.00
52625;BME280;38519;52.540;13.410;2023-06-22T04:17:05;98193.16;;;11.04;100.00
52625;BME280;38519;52.540;13.410;2023-06-22T04:19:30;98190.94;;;11.16;100.00
52625;BME280;38519;52.540;13.410;2023-06-22T04:21:56;98190.84;;;11.13;100.00
52625;BME280;38519;52.540;13.410;2023-06-22T04:24:21;98195.06;;;11.08;100.00
52625;BME280;38519;52.540;13.410;2023-06-22T04:26:46;98197.72;;;11.09;100.00
52625;BME280;38519;52.540;13.410;2023-06-22T04:29:14;98209.13;;;11.13;100.00
52625;BME280;38519;52.540;13.410;2023-06-22T04:31:41;98207.41;;;11.14;100.00
52625;BME280;38519;52.540;13.410;2023-06-22T04:34:06;98212.66;;;11.15;100.00
52625;BME280;38519;52.540;13.410;2023-06-22T04:36:35;98206.63;;;11.16;100.00
52625;BME280;38519;52.540;13.410;2023-06-22T04:39:04;98211.97;;;11.21;100.00
52625;BME280;38519;52.540;13.410;2023-06-22T04:41:30;98210.44;;;11.27;100.00
52625;BME280;38519;52.540;13.410;2023-06-22T04:44:14;98218.16;;;11.24;100.00
52625;BME280;38519;52.540;13.410;2023-06-22T04:46:48;98216.75;;;11.36;100.00
52625;BME280;38519;52.540;13.410;2023-06-22T04:49:20;98223.81;;;11.38;100.00
52625;BME280;38519;52.540;13.410;2023-06-22T04:51:45;98221.25;;;11.40;100.00
52625;BME280;38519;52.540;13.410;2023-06-22T04:54:11;98215.16;;;11.41;100.00
52625;BME280;38519;52.540;13.410;2023-06-22T04:56:38;98216.94;;;11.42;100.00
52625;BME280;38519;52.540;13.410;2023-06-22T04:59:05;98220.66;;;11.50;100.00
52625;BME280;38519;52.540;13.410;2023-06-22T05:01:31;98222.63;;;11.57;100.00
52625;BME280;38519;52.540;13.410;2023-06-22T05:03:57;98222.00;;;11.66;100.00
52625;BME280;38519;52.540;13.410;2023-06-22T05:06:25;98221.44;;;11.78;100.00
52625;BME280;38519;52.540;13.410;2023-06-22T05:08:53;98219.34;;;11.95;100.00
52625;BME280;38519;52.540;13.410;2023-06-22T05:11:24;98225.97;;;12.14;100.00
52625;BME280;38519;52.540;13.410;2023-06-22T05:13:49;98224.50;;;12.25;100.00
52625;BME280;38519;52.540;13.410;2023-06-22T05:16:14;98217.75;;;12.33;100.00
52625;BME280;38519;52.540;13.410;2023-06-22T05:18:40;98225.13;;;12.50;98.80
52625;BME280;38519;52.540;13.410;2023-06-22T05:21:06;98227.19;;;12.62;96.52
52625;BME280;38519;52.540;13.410;2023-06-22T05:23:32;98226.91;;;12.51;96.59
52625;BME280;38519;52.540;13.410;2023-06-22T05:25:57;98227.25;;;12.66;97.04
52625;BME280;38519;52.540;13.410;2023-06-22T05:28:23;98227.03;;;12.55;95.94
52625;BME280;38519;52.540;13.410;2023-06-22T05:30:48;98232.22;;;12.54;96.41
52625;BME280;38519;52.540;13.410;2023-06-22T05:33:15;98231.47;;;12.60;95.98
52625;BME280;38519;52.540;13.410;2023-06-22T05:35:40;98238.84;;;12.74;94.77
52625;BME280;38519;52.540;13.410;2023-06-22T05:38:07;98230.16;;;12.77;95.66
52625;BME280;38519;52.540;13.410;2023-06-22T05:40:32;98230.81;;;12.68;93.87
52625;BME280;38519;52.540;13.410;2023-06-22T05:42:58;98231.63;;;12.66;95.39
52625;BME280;38519;52.540;13.410;2023-06-22T05:45:25;98239.59;;;12.70;94.42
52625;BME280;38519;52.540;13.410;2023-06-22T05:47:51;98237.09;;;12.75;94.46
52625;BME280;38519;52.540;13.410;2023-06-22T05:50:17;98236.38;;;12.82;92.82
52625;BME280;38519;52.540;13.410;2023-06-22T05:52:42;98244.88;;;12.72;94.50
52625;BME280;38519;52.540;13.410;2023-06-22T05:55:07;98254.78;;;12.85;93.71
52625;BME280;38519;52.540;13.410;2023-06-22T05:57:33;98260.88;;;13.22;91.81
52625;BME280;38519;52.540;13.410;2023-06-22T05:59:58;98263.69;;;13.30;90.50
52625;BME280;38519;52.540;13.410;2023-06-22T06:02:23;98263.63;;;13.27;90.17
52625;BME280;38519;52.540;13.410;2023-06-22T06:04:50;98267.06;;;13.24;90.34
52625;BME280;38519;52.540;13.410;2023-06-22T06:07:17;98265.25;;;13.22;91.04
52625;BME280;38519;52.540;13.410;2023-06-22T06:09:43;98259.22;;;13.24;91.23
52625;BME280;38519;52.540;13.410;2023-06-22T06:12:08;98258.69;;;13.03;91.90
52625;BME280;38519;52.540;13.410;2023-06-22T06:14:35;98263.97;;;13.04;93.06
52625;BME280;38519;52.540;13.410;2023-06-22T06:17:00;98254.06;;;12.91;92.67
52625;BME280;38519;52.540;13.410;2023-06-22T06:19:25;98255.97;;;12.98;92.46
52625;BME280;38519;52.540;13.410;2023-06-22T06:21:51;98247.91;;;12.89;91.78
52625;BME280;38519;52.540;13.410;2023-06-22T06:24:17;98247.34;;;13.02;91.07
52625;BME280;38519;52.540;13.410;2023-06-22T06:26:42;98244.16;;;13.16;90.76
52625;BME280;38519;52.540;13.410;2023-06-22T06:29:07;98244.50;;;13.31;90.49
52625;BME280;38519;52.540;13.410;2023-06-22T06:31:32;98244.56;;;13.33;89.18
52625;BME280;38519;52.540;13.410;2023-06-22T06:33:58;98251.38;;;13.26;90.03
52625;BME280;38519;52.540;13.410;2023-06-22T06:36:23;98253.94;;;13.23;89.33
52625;BME280;38519;52.540;13.410;2023-06-22T06:38:49;98258.31;;;13.24;88.90
52625;BME280;38519;52.540;13.410;2023-06-22T06:41:15;98259.31;;;13.29;89.65
52625;BME280;38519;52.540;13.410;2023-06-22T06:43:40;98265.72;;;13.40;88.36
52625;BME280;38519;52.540;13.410;2023-06-22T06:46:08;98263.28;;;13.50;85.50
52625;BME280;38519;52.540;13.410;2023-06-22T06:48:33;98268.81;;;13.63;84.89
52625;BME280;38519;52.540;13.410;2023-06-22T06:50:58;98264.31;;;13.58;82.63
52625;BME280;38519;52.540;13.410;2023-06-22T06:53:23;98254.22;;;13.76;82.48
52625;BME280;38519;52.540;13.410;2023-06-22T06:55:49;98250.69;;;13.74;81.38
52625;BME280;38519;52.540;13.410;2023-06-22T06:58:14;98250.56;;;13.68;83.23
52625;BME280;38519;52.540;13.410;2023-06-22T07:00:40;98249.81;;;13.75;81.42
52625;BME280;38519;52.540;13.410;2023-06-22T07:03:05;98242.50;;;14.01;78.55
52625;BME280;38519;52.540;13.410;2023-06-22T07:05:32;98254.50;;;13.89;78.95
52625;BME280;38519;52.540;13.410;2023-06-22T07:07:57;98249.25;;;13.89;78.31
52625;BME280;38519;52.540;13.410;2023-06-22T07:10:22;98239.81;;;13.98;77.76
52625;BME280;38519;52.540;13.410;2023-06-22T07:12:47;98241.03;;;14.16;77.05
52625;BME280;38519;52.540;13.410;2023-06-22T07:15:13;98240.72;;;14.48;76.27
52625;BME280;38519;52.540;13.410;2023-06-22T07:17:38;98239.44;;;14.74;75.59
52625;BME280;38519;52.540;13.410;2023-06-22T07:20:07;98236.34;;;15.00;73.97
52625;BME280;38519;52.540;13.410;2023-06-22T07:22:36;98232.19;;;15.16;72.36
52625;BME280;38519;52.540;13.410;2023-06-22T07:25:01;98235.25;;;15.47;70.01
52625;BME280;38519;52.540;13.410;2023-06-22T07:27:30;98235.00;;;15.27;69.41
52625;BME280;38519;52.540;13.410;2023-06-22T07:30:00;98228.88;;;15.29;70.75
52625;BME280;38519;52.540;13.410;2023-06-22T07:32:27;98237.28;;;15.68;67.29
52625;BME280;38519;52.540;13.410;2023-06-22T07:34:53;98236.34;;;15.63;67.88
52625;BME280;38519;52.540;13.410;2023-06-22T07:37:20;98234.75;;;15.76;65.43
52625;BME280;38519;52.540;13.410;2023-06-22T07:39:45;98235.09;;;16.00;62.92
52625;BME280;38519;52.540;13.410;2023-06-22T07:42:11;98231.69;;;16.12;62.14
52625;BME280;38519;52.540;13.410;2023-06-22T07:44:36;98236.13;;;16.19;60.97
52625;BME280;38519;52.540;13.410;2023-06-22T07:47:02;98232.59;;;16.16;62.27
52625;BME280;38519;52.540;13.410;2023-06-22T07:49:28;98227.31;;;16.14;62.63
52625;BME280;38519;52.540;13.410;2023-06-22T07:51:54;98231.59;;;16.05;62.16
52625;BME280;38519;52.540;13.410;2023-06-22T07:54:19;98234.69;;;16.49;58.80
52625;BME280;38519;52.540;13.410;2023-06-22T07:56:45;98239.16;;;16.55;59.13
52625;BME280;38519;52.540;13.410;2023-06-22T07:59:11;98230.72;;;16.04;61.02
52625;BME280;38519;52.540;13.410;2023-06-22T08:01:36;98230.00;;;16.19;62.02
52625;BME280;38519;52.540;13.410;2023-06-22T08:04:01;98222.97;;;16.16;61.18
52625;BME280;38519;52.540;13.410;2023-06-22T08:06:28;98220.50;;;16.35;60.72
52625;BME280;38519;52.540;13.410;2023-06-22T08:08:54;98221.13;;;16.08;62.49
52625;BME280;38519;52.540;13.410;2023-06-22T08:11:22;98226.25;;;15.97;63.22
52625;BME280;38519;52.540;13.410;2023-06-22T08:13:48;98223.59;;;15.92;63.18
52625;BME280;38519;52.540;13.410;2023-06-22T08:16:14;98233.94;;;15.78;62.40
52625;BME280;38519;52.540;13.410;2023-06-22T08:18:40;98225.50;;;16.06;61.45
52625;BME280;38519;52.540;13.410;2023-06-22T08:21:05;98224.00;;;16.31;60.87
52625;BME280;38519;52.540;13.410;2023-06-22T08:23:30;98230.28;;;16.47;60.90
52625;BME280;38519;52.540;13.410;2023-06-22T08:25:55;98230.16;;;16.33;60.60
52625;BME280;38519;52.540;13.410;2023-06-22T08:28:21;98228.41;;;16.33;60.87
52625;BME280;38519;52.540;13.410;2023-06-22T08:30:46;98230.91;;;16.18;61.19
52625;BME280;38519;52.540;13.410;2023-06-22T08:33:12;98233.72;;;16.39;59.12
52625;BME280;38519;52.540;13.410;2023-06-22T08:35:37;98227.56;;;16.37;60.04
52625;BME280;38519;52.540;13.410;2023-06-22T08:38:03;98232.91;;;16.48;60.53
52625;BME280;38519;52.540;13.410;2023-06-22T08:40:28;98233.00;;;16.57;58.09
52625;BME280;38519;52.540;13.410;2023-06-22T08:42:54;98227.94;;;16.79;57.48
52625;BME280;38519;52.540;13.410;2023-06-22T08:45:20;98227.53;;;16.34;57.89
52625;BME280;38519;52.540;13.410;2023-06-22T08:47:45;98229.66;;;16.79;56.92
52625;BME280;38519;52.540;13.410;2023-06-22T08:50:11;98227.53;;;16.34;58.79
52625;BME280;38519;52.540;13.410;2023-06-22T08:52:37;98236.53;;;16.55;59.12
52625;BME280;38519;52.540;13.410;2023-06-22T08:55:03;98230.28;;;16.48;59.30
52625;BME280;38519;52.540;13.410;2023-06-22T08:57:29;98233.09;;;16.65;58.99
52625;BME280;38519;52.540;13.410;2023-06-22T08:59:57;98235.78;;;16.71;59.65
52625;BME280;38519;52.540;13.410;2023-06-22T09:02:26;98232.53;;;17.02;57.90
52625;BME280;38519;52.540;13.410;2023-06-22T09:04:55;98236.91;;;17.01;57.91
52625;BME280;38519;52.540;13.410;2023-06-22T09:07:21;98223.53;;;16.80;57.54
52625;BME280;38519;52.540;13.410;2023-06-22T09:09:48;98227.00;;;16.74;59.00
52625;BME280;38519;52.540;13.410;2023-06-22T09:12:13;98227.94;;;16.81;58.05
52625;BME280;38519;52.540;13.410;2023-06-22T09:14:39;98223.59;;;16.84;59.51
52625;BME280;38519;52.540;13.410;2023-06-22T09:17:07;98220.13;;;16.90;57.69
52625;BME280;38519;52.540;13.410;2023-06-22T09:19:32;98221.03;;;16.90;56.48
52625;BME280;38519;52.540;13.410;2023-06-22T09:21:58;98231.91;;;17.43;53.99
52625;BME280;38519;52.540;13.410;2023-06-22T09:24:23;98227.44;;;17.29;56.37
52625;BME280;38519;52.540;13.410;2023-06-22T09:26:49;98232.75;;;17.36;54.31
52625;BME280;38519;52.540;13.410;2023-06-22T09:29:15;98226.75;;;17.68;52.61
52625;BME280;38519;52.540;13.410;2023-06-22T09:31:40;98224.00;;;17.46;52.52
52625;BME280;38519;52.540;13.410;2023-06-22T09:34:07;98223.75;;;17.06;52.85
52625;BME280;38519;52.540;13.410;2023-06-22T09:36:48;98220.44;;;17.36;52.95
52625;BME280;38519;52.540;13.410;2023-06-22T09:39:16;98223.84;;;17.20;52.28
52625;BME280;38519;52.540;13.410;2023-06-22T09:41:42;98218.56;;;17.15;53.83
52625;BME280;38519;52.540;13.410;2023-06-22T09:44:08;98212.41;;;17.13;54.10
52625;BME280;38519;52.540;13.410;2023-06-22T09:46:33;98213.22;;;17.07;54.61
52625;BME280;38519;52.540;13.410;2023-06-22T09:51:38;98211.72;;;17.56;52.78
52625;BME280;38519;52.540;13.410;2023-06-22T09:54:07;98210.00;;;17.55;51.91
52625;BME280;38519;52.540;13.410;2023-06-22T09:56:33;98212.50;;;17.33;54.07
52625;BME280;38519;52.540;13.410;2023-06-22T09:58:58;98205.50;;;17.35;55.30
52625;BME280;38519;52.540;13.410;2023-06-22T10:01:25;98215.09;;;17.22;55.84
52625;BME280;38519;52.540;13.410;2023-06-22T10:03:55;98212.47;;;17.24;55.66
52625;BME280;38519;52.540;13.410;2023-06-22T10:06:21;98213.41;;;17.41;55.02
52625;BME280;38519;52.540;13.410;2023-06-22T10:08:50;98213.44;;;17.44;54.35
52625;BME280;38519;52.540;13.410;2023-06-22T10:11:15;98218.78;;;17.57;53.22
52625;BME280;38519;52.540;13.410;2023-06-22T10:13:40;98217.22;;;17.90;52.83
52625;BME280;38519;52.540;13.410;2023-06-22T10:16:06;98216.31;;;17.89;52.66
52625;BME280;38519;52.540;13.410;2023-06-22T10:18:32;98208.38;;;17.91;53.01
52625;BME280;38519;52.540;13.410;2023-06-22T10:20:58;98215.50;;;18.16;52.30
52625;BME280;38519;52.540;13.410;2023-06-22T10:23:23;98210.94;;;17.80;53.20
52625;BME280;38519;52.540;13.410;2023-06-22T10:25:49;98206.56;;;17.77;53.08
52625;BME280;38519;52.540;13.410;2023-06-22T10:28:15;98207.38;;;17.65;52.53
52625;BME280;38519;52.540;13.410;2023-06-22T10:30:40;98206.59;;;17.85;52.77
52625;BME280;38519;52.540;13.410;2023-06-22T10:33:07;98203.97;;;17.85;53.34
52625;BME280;38519;52.540;13.410;2023-06-22T10:35:32;98199.59;;;17.92;53.62
52625;BME280;38519;52.540;13.410;2023-06-22T10:37:57;98196.09;;;18.02;52.92
52625;BME280;38519;52.540;13.410;2023-06-22T10:40:24;98202.34;;;18.35;53.20
52625;BME280;38519;52.540;13.410;2023-06-22T10:42:49;98196.16;;;18.81;52.40
52625;BME280;38519;52.540;13.410;2023-06-22T10:45:15;98189.13;;;18.60;52.34
52625;BME280;38519;52.540;13.410;2023-06-22T10:47:40;98192.66;;;18.68;50.97
52625;BME280;38519;52.540;13.410;2023-06-22T10:50:08;98199.72;;;18.81;50.83
52625;BME280;38519;52.540;13.410;2023-06-22T10:52:34;98180.34;;;18.61;51.85
52625;BME280;38519;52.540;13.410;2023-06-22T10:54:59;98180.31;;;18.78;51.90
52625;BME280;38519;52.540;13.410;2023-06-22T10:57:24;98180.31;;;18.41;51.67
52625;BME280;38519;52.540;13.410;2023-06-22T10:59:50;98176.81;;;18.40;51.82
52625;BME280;38519;52.540;13.410;2023-06-22T11:02:15;98175.03;;;18.39;52.28
52625;BME280;38519;52.540;13.410;2023-06-22T11:04:40;98164.44;;;18.05;53.45
52625;BME280;38519;52.540;13.410;2023-06-22T11:07:05;98165.31;;;18.01;53.91
52625;BME280;38519;52.540;13.410;2023-06-22T11:09:32;98168.00;;;18.32;53.25
52625;BME280;38519;52.540;13.410;2023-06-22T11:11:57;98163.56;;;18.80;50.82
52625;BME280;38519;52.540;13.410;2023-06-22T11:14:24;98175.91;;;19.06;50.11
52625;BME280;38519;52.540;13.410;2023-06-22T11:16:49;98181.13;;;19.29;50.34
52625;BME280;38519;52.540;13.410;2023-06-22T11:19:14;98178.44;;;19.54;49.27
52625;BME280;38519;52.540;13.410;2023-06-22T11:21:40;98174.13;;;19.13;49.47
52625;BME280;38519;52.540;13.410;2023-06-22T11:24:05;98163.56;;;18.63;49.99
52625;BME280;38519;52.540;13.410;2023-06-22T11:26:30;98159.16;;;19.07;50.98
52625;BME280;38519;52.540;13.410;2023-06-22T11:28:57;98160.91;;;18.99;49.96
52625;BME280;38519;52.540;13.410;2023-06-22T11:31:22;98164.41;;;19.15;48.00
52625;BME280;38519;52.540;13.410;2023-06-22T11:33:49;98159.88;;;19.58;49.31
52625;BME280;38519;52.540;13.410;2023-06-22T11:36:14;98153.66;;;19.69;47.83
52625;BME280;38519;52.540;13.410;2023-06-22T11:38:40;98156.44;;;19.33;48.58
52625;BME280;38519;52.540;13.410;2023-06-22T11:41:05;98151.22;;;18.81;48.83
52625;BME280;38519;52.540;13.410;2023-06-22T11:43:31;98153.91;;;18.98;48.83
52625;BME280;38519;52.540;13.410;2023-06-22T11:45:57;98154.75;;;19.12;48.59
52625;BME280;38519;52.540;13.410;2023-06-22T11:48:26;98159.06;;;19.38;47.88
52625;BME280;38519;52.540;13.410;2023-06-22T11:50:51;98162.56;;;19.47;47.20
52625;BME280;38519;52.540;13.410;2023-06-22T11:53:20;98163.41;;;19.54;48.67
52625;BME280;38519;52.540;13.410;2023-06-22T11:55:46;98166.91;;;19.58;46.54
52625;BME280;38519;52.540;13.410;2023-06-22T11:58:11;98166.16;;;19.25;47.61
52625;BME280;38519;52.540;13.410;2023-06-22T12:00:37;98161.72;;;19.36;48.03
52625;BME280;38519;52.540;13.410;2023-06-22T12:03:02;98159.91;;;19.47;49.12
52625;BME280;38519;52.540;13.410;2023-06-22T12:05:27;98171.38;;;19.48;49.10
52625;BME280;38519;52.540;13.410;2023-06-22T12:07:53;98159.88;;;19.57;47.45
52625;BME280;38519;52.540;13.410;2023-06-22T12:10:18;98158.97;;;19.62;47.91
52625;BME280;38519;52.540;13.410;2023-06-22T12:12:44;98148.31;;;19.82;45.62
52625;BME280;38519;52.540;13.410;2023-06-22T12:15:09;98153.50;;;19.98;47.29
52625;BME280;38519;52.540;13.410;2023-06-22T12:17:35;98151.72;;;20.01;46.54
52625;BME280;38519;52.540;13.410;2023-06-22T12:20:00;98148.13;;;20.13;45.98
52625;BME280;38519;52.540;13.410;2023-06-22T12:22:26;98147.94;;;20.38;45.29
52625;BME280;38519;52.540;13.410;2023-06-22T12:24:51;98137.28;;;20.44;45.27
52625;BME280;38519;52.540;13.410;2023-06-22T12:27:17;98140.69;;;20.66;43.67
52625;BME280;38519;52.540;13.410;2023-06-22T12:29:43;98142.91;;;21.08;42.17
52625;BME280;38519;52.540;13.410;2023-06-22T12:32:09;98130.56;;;21.05;42.23
52625;BME280;38519;52.540;13.410;2023-06-22T12:34:34;98127.03;;;21.05;40.93
52625;BME280;38519;52.540;13.410;2023-06-22T12:37:00;98117.19;;;21.16;41.64
52625;BME280;38519;52.540;13.410;2023-06-22T12:39:25;98127.56;;;21.35;40.61
52625;BME280;38519;52.540;13.410;2023-06-22T12:41:50;98122.16;;;20.59;41.59
52625;BME280;38519;52.540;13.410;2023-06-22T12:44:15;98119.97;;;21.78;40.26
52625;BME280;38519;52.540;13.410;2023-06-22T12:46:41;98132.63;;;21.59;39.85
52625;BME280;38519;52.540;13.410;2023-06-22T12:49:07;98107.84;;;20.77;43.16
52625;BME280;38519;52.540;13.410;2023-06-22T12:51:32;98107.44;;;20.22;41.67